Terminal Aerodrome Forecast
Issued by NWS

Home | Current Version | Previous Version | Text Only | Print | Product List | Glossary On
Versions: 1 2 3 4 5 6 7 8 9 10 11 12 13 14
000
FTAK31 PAJN 162340
TAFAPG
TAF
PAPG 162340Z 1700/1724 16004KT 4SM -SHRA BR BKN006 OVC015
     FM170300 18004KT 3SM -SHRA BR BKN006 OVC015
     FM171300 VRB02KT 2SM SHRA BR OVC006
     FM171800 14005KT 3SM RA BR SCT006 OVC015
      AMD LTD TO CLD VIS AND WIND 1706/1715=

USA.gov is the U.S. government's official web portal to all federal, state and local government web resources and services.